Time;durP1;ratioP1;P1;durP2;ratioP2;P2;SDS_P1;SDS_P2;PMS_P1;PMS_P2;Temp;Humidity;BMP_temperature;BMP_pressure;BME280_temperature;BME280_humidity;BME280_pressure;Samples;Min_cycle;Max_cycle;Signal;HPM_P1;HPM_P2
2023/06/25 01:32:51;;;;;;;;;;;;;;;;;;;;;
2023/06/25 01:40:26;;;;;;;;;;;;;;;;;;;;;
2023/06/25 02:19:05;;;;;;;;;;;;;;;;;;;;;
2023/06/25 03:20:29;;;;;;;7.97;7.27;;;21.60;92.60;;;;;;6167522;23;20437;-83
2023/06/25 03:31:18;;;;;;;;;;;;;;;;;;;;;
2023/06/25 03:41:13;;;;;;;5.57;5.07;;;21.70;93.00;;;;;;6178783;23;20444;-83
2023/06/25 03:53:55;;;;;;;;;;;;;;;;;;;;;
2023/06/25 03:57:29;;;;;;;7.57;6.77;;;21.50;93.30;;;;;;6208467;23;20432;-83
2023/06/25 04:00:52;;;;;;;7.20;6.50;;;21.50;93.50;;;;;;6149736;23;20417;-84
2023/06/25 04:07:27;;;;;;;6.37;5.77;;;21.40;93.80;;;;;;6166415;23;20940;-84
2023/06/25 04:10:32;;;;;;;;;;;;;;;;;;;;;
2023/06/25 04:13:34;;;;;;;7.03;6.33;;;21.60;93.90;;;;;;6073974;23;20461;-83
2023/06/25 04:19:29;;;;;;;7.03;6.40;;;21.30;94.30;;;;;;6067389;23;20947;-84
2023/06/25 04:26:08;;;;;;;6.80;6.20;;;21.50;94.20;;;;;;6049681;23;20481;-84
2023/06/25 04:29:25;;;;;;;7.27;6.67;;;21.30;94.50;;;;;;6073738;23;20417;-85
2023/06/25 04:32:22;;;;;;;7.90;7.10;;;21.10;94.90;;;;;;6039205;23;20405;-83
2023/06/25 04:35:22;;;;;;;9.00;7.17;;;21.00;95.30;;;;;;6074280;23;20832;-85
2023/06/25 04:38:22;;;;;;;7.80;7.00;;;21.10;95.50;;;;;;6075006;23;20425;-83
2023/06/25 04:41:12;;;;;;;9.17;6.50;;;21.10;95.40;;;;;;6051164;23;20406;-84
2023/06/25 04:43:54;;;;;;;7.23;6.57;;;21.20;95.40;;;;;;6138492;23;21048;-84
2023/06/25 04:46:54;;;;;;;7.67;6.87;;;21.20;95.20;;;;;;6163989;23;20443;-85
2023/06/25 04:50:10;;;;;;;8.23;6.87;;;21.20;95.30;;;;;;6143668;23;20474;-85
2023/06/25 04:53:05;;;;;;;7.30;6.60;;;21.30;95.50;;;;;;6151759;23;20434;-84
2023/06/25 04:55:46;;;;;;;7.87;7.17;;;21.30;95.20;;;;;;6163976;23;20417;-85
2023/06/25 04:58:42;;;;;;;8.20;7.33;;;21.30;95.20;;;;;;6135760;23;20871;-84
2023/06/25 05:01:47;;;;;;;8.03;7.37;;;21.20;95.10;;;;;;6164220;23;20386;-84
2023/06/25 05:08:13;;;;;;;6.90;6.30;;;21.50;94.90;;;;;;6152461;23;20403;-84
2023/06/25 05:11:09;;;;;;;8.83;7.30;;;21.50;95.00;;;;;;6162682;23;20971;-83
2023/06/25 05:14:24;;;;;;;7.47;6.77;;;21.70;94.90;;;;;;6140426;23;20493;-84
2023/06/25 05:17:24;;;;;;;7.40;6.70;;;21.70;94.50;;;;;;6104031;23;20426;-85
2023/06/25 05:20:22;;;;;;;9.63;6.87;;;21.70;94.60;;;;;;6106607;23;20424;-84
2023/06/25 05:23:46;;;;;;;;;;;;;;;;;;;;;
2023/06/25 05:26:50;;;;;;;8.30;7.50;;;21.80;94.60;;;;;;6016619;23;20453;-84
2023/06/25 05:29:38;;;;;;;8.77;7.40;;;21.80;94.80;;;;;;6015120;23;20419;-84
2023/06/25 05:33:07;;;;;;;8.33;7.33;;;21.90;94.40;;;;;;5977042;23;20427;-84
2023/06/25 05:36:36;;;;;;;;;;;;;;;;;;;;;
2023/06/25 05:39:35;;;;;;;7.57;6.87;;;21.90;94.50;;;;;;6015011;23;20395;-84
2023/06/25 05:42:43;;;;;;;7.77;6.53;;;21.80;94.90;;;;;;5992103;23;20905;-84
2023/06/25 05:45:29;;;;;;;7.50;6.73;;;22.10;94.40;;;;;;6016098;23;20419;-84
2023/06/25 05:48:58;;;;;;;8.67;7.27;;;22.20;94.00;;;;;;5996227;23;20442;-83
2023/06/25 05:51:42;;;;;;;7.07;6.37;;;22.20;93.50;;;;;;6003505;23;20411;-84
2023/06/25 05:54:58;;;;;;;6.90;5.33;;;22.30;93.40;;;;;;6058768;23;20453;-86
2023/06/25 05:57:49;;;;;;;11.53;6.77;;;22.30;93.50;;;;;;6051603;23;20483;-84
2023/06/25 06:00:47;;;;;;;7.53;6.83;;;22.40;93.30;;;;;;6058488;23;20587;-81
2023/06/25 06:03:39;;;;;;;7.83;6.90;;;22.50;92.70;;;;;;5998868;23;20881;-85
2023/06/25 06:06:19;;;;;;;6.80;6.10;;;22.50;92.90;;;;;;6071950;23;20448;-85
2023/06/25 06:09:12;;;;;;;7.83;7.03;;;22.50;92.80;;;;;;6096654;23;20444;-85
2023/06/25 06:12:20;;;;;;;7.13;6.53;;;22.50;92.70;;;;;;6087561;23;20412;-85
2023/06/25 06:15:16;;;;;;;6.80;6.20;;;22.60;92.70;;;;;;6080821;23;20432;-85
2023/06/25 06:18:31;;;;;;;8.10;6.93;;;22.70;92.20;;;;;;6091234;23;20421;-84
2023/06/25 06:24:10;;;;;;;8.70;6.37;;;22.80;92.50;;;;;;6107127;23;20539;-84
2023/06/25 06:30:01;;;;;;;7.37;6.67;;;22.90;92.40;;;;;;6157873;23;20435;-85
2023/06/25 06:33:08;;;;;;;7.37;6.63;;;22.90;92.40;;;;;;6156425;23;20470;-84
2023/06/25 06:39:20;;;;;;;7.20;6.50;;;23.30;91.40;;;;;;6183192;23;20626;-83
2023/06/25 06:42:23;;;;;;;6.37;5.77;;;23.40;90.60;;;;;;6188640;23;20472;-84
2023/06/25 06:45:19;;;;;;;7.80;6.30;;;23.50;90.50;;;;;;6105347;23;20431;-83
2023/06/25 06:48:05;;;;;;;7.03;6.33;;;23.50;90.40;;;;;;6135424;23;20465;-82
2023/06/25 06:51:01;;;;;;;6.70;6.10;;;23.60;90.10;;;;;;6134845;23;20750;-83
2023/06/25 06:53:49;;;;;;;5.93;5.43;;;23.60;90.10;;;;;;6157806;23;20439;-83
2023/06/25 06:56:59;;;;;;;6.50;5.90;;;23.70;90.20;;;;;;6136868;23;20411;-82
2023/06/25 07:02:59;;;;;;;6.97;6.37;;;24.00;88.20;;;;;;6159322;23;20511;-83
2023/06/25 07:05:41;;;;;;;6.83;6.13;;;24.00;87.50;;;;;;6138786;23;20426;-84
2023/06/25 07:08:58;;;;;;;6.40;5.80;;;23.80;88.10;;;;;;6124649;23;20407;-83
2023/06/25 07:11:35;;;;;;;6.00;5.50;;;24.20;87.10;;;;;;6134543;23;20410;-83
2023/06/25 07:14:21;;;;;;;6.30;5.70;;;24.20;87.20;;;;;;6135928;23;20441;-83
2023/06/25 07:17:21;;;;;;;7.00;6.40;;;24.40;86.80;;;;;;6125165;23;20403;-82
2023/06/25 07:20:57;;;;;;;;;;;;;;;;;;;;;
2023/06/25 07:24:19;;;;;;;7.13;6.33;;;24.40;86.40;;;;;;6170301;23;20433;-83
2023/06/25 07:26:51;;;;;;;6.67;6.10;;;24.40;86.90;;;;;;6119412;23;20439;-81
2023/06/25 07:34:53;;;;;;;6.77;6.17;;;25.00;85.10;;;;;;6181529;23;20508;-84
2023/06/25 07:41:32;;;;;;;6.53;5.90;;;25.10;84.40;;;;;;6098092;23;20519;-83
2023/06/25 07:44:15;;;;;;;7.00;6.30;;;25.30;83.40;;;;;;6110666;23;20463;-83
2023/06/25 07:47:14;;;;;;;6.40;5.80;;;25.30;83.30;;;;;;6136231;23;20502;-83
2023/06/25 07:49:48;;;;;;;6.40;5.57;;;25.50;82.60;;;;;;6150419;23;20403;-85
2023/06/25 07:53:11;;;;;;;;;;;;;;;;;;;;;
2023/06/25 07:56:23;;;;;;;7.00;6.40;;;25.70;81.70;;;;;;6145085;23;20411;-85
2023/06/25 07:59:18;;;;;;;6.63;6.03;;;25.70;82.00;;;;;;6109905;23;20457;-83
2023/06/25 08:10:45;;;;;;;6.43;5.80;;;26.00;81.10;;;;;;6158670;23;20601;-83
2023/06/25 08:13:36;;;;;;;6.97;5.50;;;26.30;77.30;;;;;;6170474;23;20472;-83
2023/06/25 08:16:26;;;;;;;5.10;4.70;;;26.50;75.80;;;;;;6150059;23;21159;-83
2023/06/25 08:19:18;;;;;;;5.60;5.10;;;26.70;75.10;;;;;;6169509;23;20420;-83
2023/06/25 08:28:45;;;;;;;5.57;5.07;;;27.10;72.20;;;;;;6163145;23;20489;-84
2023/06/25 08:35:05;;;;;;;5.90;5.40;;;27.10;71.70;;;;;;6130365;23;20482;-83
2023/06/25 08:41:49;;;;;;;5.53;5.03;;;27.90;69.00;;;;;;6179776;23;20469;-85
2023/06/25 08:44:38;;;;;;;5.63;5.13;;;28.20;67.30;;;;;;6193822;23;20438;-84
2023/06/25 08:47:34;;;;;;;5.40;5.00;;;28.50;66.30;;;;;;6169144;23;20496;-84
2023/06/25 08:50:19;;;;;;;6.50;5.30;;;28.60;65.70;;;;;;6193743;23;20429;-85
2023/06/25 08:53:04;;;;;;;4.90;4.50;;;29.00;64.00;;;;;;6193506;23;20950;-85
2023/06/25 08:59:11;;;;;;;6.17;5.67;;;29.50;61.40;;;;;;6095701;23;20468;-83
2023/06/25 09:02:21;;;;;;;;;;;;;;;;;;;;;
2023/06/25 09:05:12;;;;;;;5.50;5.10;;;29.80;59.90;;;;;;6165618;23;20457;-84
2023/06/25 09:08:04;;;;;;;5.40;4.87;;;30.00;58.60;;;;;;6146788;23;20454;-84
2023/06/25 09:11:06;;;;;;;4.87;4.50;;;30.30;57.70;;;;;;6162573;23;20490;-84
2023/06/25 09:13:57;;;;;;;5.00;4.53;;;30.00;57.80;;;;;;6140222;23;20423;-84
2023/06/25 09:16:56;;;;;;;5.30;4.90;;;29.90;57.60;;;;;;6159103;23;20399;-85
2023/06/25 09:19:52;;;;;;;5.07;4.57;;;30.70;56.10;;;;;;6161201;23;20978;-83
2023/06/25 09:23:12;;;;;;;5.20;4.80;;;31.40;54.20;;;;;;6160919;23;20423;-86
2023/06/25 09:26:49;;;;;;;4.53;4.23;;;31.80;52.70;;;;;;6044311;23;20823;-85
2023/06/25 09:29:50;;;;;;;5.67;5.27;;;31.80;52.00;;;;;;6031328;23;20466;-85
2023/06/25 09:33:09;;;;;;;5.20;4.70;;;31.80;51.20;;;;;;6163110;23;20426;-83
2023/06/25 09:36:06;;;;;;;6.60;5.00;;;31.90;51.50;;;;;;6162764;23;20430;-84
2023/06/25 09:52:52;;;;;;;4.90;4.50;;;33.90;44.40;;;;;;6161614;23;20409;-85
2023/06/25 09:55:56;;;;;;;4.87;4.53;;;34.70;42.40;;;;;;6142196;23;20394;-84
2023/06/25 16:30:56;;;;;;;4.70;4.23;;;33.20;37.20;;;;;;6162636;23;20374;-83
2023/06/25 16:37:42;;;;;;;;;;;;;;;;;;;;;
2023/06/25 17:58:56;;;;;;;4.50;4.10;;;32.90;39.80;;;;;;6151019;23;20434;-84
